アルマトイ国際空港の過去48時間の天気

アルマトイ国際空港 (Almaty)

現在時刻: 9/22 21:29 +05 (9/22 16:29 UTC) 以下の時間は現地時間です。

過去48時間のMETAR気象情報
時間 風向 風速(m/s) 視程 気温(℃) 湿度(%) 気圧(hPa) 天気現象
22 21:00 南南西 1 10km以上 13 54 1019
22 20:30 南東 2 10km以上 14 47 1019
22 20:00 南南東 2 5000m 14 51 1019
22 19:30 南東 2 5000m 15 48 1019
22 19:00 南南東 2 5000m 16 42 1019
22 18:30 不定 1 10km以上 17 34 1019
22 18:00 北北西 3 10km以上 18 32 1019
22 17:30 北西 3 10km以上 19 30 1018
22 17:00 西北西 3 10km以上 21 26 1018
22 16:30 西北西 3 10km以上 22 27 1018
22 16:00 西 3 10km以上 22 25 1017
22 15:30 西 2 10km以上 23 22 1017
22 15:00 不定 1 10km以上 22 23 1017
22 14:30 北西 3 10km以上 23 22 1017
22 14:00 北西 4 10km以上 22 25 1017
22 13:30 西 3 10km以上 22 23 1017
22 13:00 北北西 3 10km以上 22 25 1017
22 12:30 4 10km以上 22 25 1018
22 12:00 西 3 10km以上 22 25 1018
22 11:30 北西 3 10km以上 21 25 1018
22 11:00 西 3 10km以上 21 26 1018
22 10:30 西 4 10km以上 20 26 1019
22 10:00 西南西 3 10km以上 20 26 1020
22 09:30 西南西 3 10km以上 19 30 1020
22 09:00 西南西 4 10km以上 19 30 1020
22 08:30 南南西 4 10km以上 18 32 1020
22 08:00 西 3 10km以上 17 34 1019
22 07:30 西 3 10km以上 17 39 1019
22 07:00 不定 1 10km以上 15 51 1019
22 06:30 2 10km以上 13 58 1019
22 06:00 2 10km以上 13 58 1018
22 05:30 南南東 2 10km以上 12 62 1018
22 05:00 静穏 0 10km以上 13 58 1018
22 04:30 不定 1 10km以上 12 58 1018
22 04:00 南東 2 10km以上 13 54 1018
22 03:30 不定 1 10km以上 13 54 1018
22 03:00 静穏 0 10km以上 13 54 1018
22 02:30 南南東 2 10km以上 13 54 1017
22 02:00 1 10km以上 13 54 1017
22 01:30 2 10km以上 14 47 1018
22 01:00 2 10km以上 13 54 1018
22 00:30 2 10km以上 14 47 1018
22 00:00 静穏 0 10km以上 13 51 1017
21 23:30 南南東 2 10km以上 13 51 1017
21 23:00 南東 3 10km以上 13 54 1017
21 22:30 南南東 4 10km以上 14 51 1018
21 22:00 北西 3 10km以上 13 54 1017
21 21:47 北西 5 10km以上 13 54 1017
21 21:30 南東 2 10km以上 13 54 1016
21 21:00 南東 2 10km以上 13 54 1016
21 20:30 南南東 2 10km以上 15 45 1016
21 20:00 2 10km以上 15 45 1016
21 19:30 不定 1 10km以上 17 36 1016
21 19:00 南南東 2 10km以上 17 36 1016
21 18:30 南南東 2 10km以上 18 34 1016
21 18:00 東南東 1 10km以上 20 30 1016
21 17:30 不定 1 10km以上 22 27 1016
21 17:00 東北東 2 10km以上 24 22 1015
21 16:30 北東 2 10km以上 25 19 1015
21 16:00 北東 2 10km以上 25 18 1015
21 15:30 北北東 3 10km以上 26 17 1015
21 15:00 北北東 3 10km以上 26 16 1015
21 14:30 北北東 5 10km以上 26 15 1015
21 14:00 北北東 2 10km以上 26 15 1015
21 13:30 4 10km以上 26 14 1015
21 13:00 3 10km以上 26 15 1015
21 12:30 東北東 3 10km以上 25 21 1015
21 12:00 北東 3 10km以上 25 22 1015
21 11:30 北東 2 10km以上 24 22 1016
21 11:00 2 10km以上 24 24 1016
21 10:30 3 10km以上 23 29 1016
21 10:00 北北東 2 10km以上 22 31 1016
21 09:30 北北東 2 10km以上 20 40 1016
21 09:00 3 10km以上 18 49 1016
21 08:30 静穏 0 10km以上 17 48 1016
21 08:00 不定 1 10km以上 15 55 1016
21 07:30 静穏 0 10km以上 14 59 1016
21 07:00 静穏 0 10km以上 12 62 1016
21 06:30 不定 1 10km以上 9 71 1016
21 06:00 静穏 0 10km以上 7 76 1016
21 05:30 南東 2 10km以上 7 76 1016
21 05:00 2 10km以上 7 81 1016
21 04:30 2 10km以上 7 81 1016
21 04:00 静穏 0 10km以上 7 81 1015
21 03:30 東南東 1 10km以上 7 81 1015
21 03:00 不定 1 10km以上 8 81 1015
21 02:30 不定 1 10km以上 8 81 1015
21 02:00 南南東 2 10km以上 8 81 1015
21 01:30 南南東 2 10km以上 9 81 1015
21 01:00 南東 2 10km以上 9 81 1015
21 00:30 東南東 2 10km以上 9 81 1015
21 00:00 東南東 1 10km以上 9 81 1015
20 23:30 不定 1 5000m 10 76 1015 もや 煙
20 23:00 静穏 0 5000m 10 76 1015 もや 煙
20 22:30 不定 1 5000m 11 71 1015 もや 煙
20 22:00 不定 1 4100m 11 76 1015 もや 煙
20 21:30 2 3400m 12 71 1015 もや 煙
UAAA 221600Z 20001MPS 9999 FEW100 13/04 Q1019 R05R/CLRD65 NOSIG
UAAA 221530Z 14002MPS 9999 FEW100 14/03 Q1019 R05R/CLRD65 NOSIG
UAAA 221500Z 16002MPS 5000 FU FEW100 14/04 Q1019 R05R/CLRD65 NOSIG
UAAA 221430Z 14002MPS 5000 FU FEW100 15/04 Q1019 R05R/CLRD65 NOSIG
UAAA 221400Z 15002MPS 110V180 5000 FU FEW100 16/03 Q1019 R05R/CLRD65 NOSIG
UAAA 221330Z VRB01MPS 9999 SCT100 17/01 Q1019 R05R/CLRD65 NOSIG
UAAA 221300Z 33003MPS 9999 SCT100 18/01 Q1019 R05R/CLRD65 NOSIG
UAAA 221230Z 32003MPS 9999 SCT200 19/01 Q1018 R05R/CLRD65 NOSIG
UAAA 221200Z 29003MPS 9999 FEW200 21/01 Q1018 R05R/CLRD65 NOSIG
UAAA 221130Z 29003MPS 9999 FEW200 22/02 Q1018 R05R/CLRD65 NOSIG
UAAA 221100Z 28003MPS 250V340 9999 FEW200 22/01 Q1017 R05R/CLRD65 NOSIG
UAAA 221030Z 27002MPS 9999 FEW200 23/00 Q1017 R05R/CLRD65 NOSIG
UAAA 221000Z VRB01MPS 9999 FEW200 22/00 Q1017 R05R/CLRD65 NOSIG
UAAA 220930Z 32003MPS 240V020 9999 FEW200 23/00 Q1017 R05R/CLRD65 NOSIG
UAAA 220900Z 32004MPS 290V030 9999 FEW200 22/01 Q1017 R05R/CLRD65 NOSIG
UAAA 220830Z 28003MPS 240V330 9999 FEW200 22/00 Q1017 R23L/CLRD65 NOSIG
UAAA 220800Z 34003MPS 9999 FEW200 22/01 Q1017 R23L/CLRD65 NOSIG
UAAA 220730Z 35004MPS 320V050 9999 FEW200 22/01 Q1018 R23L/CLRD65 NOSIG
UAAA 220700Z 28003MPS 210V350 9999 FEW100 22/01 Q1018 R23L/CLRD65 NOSIG
UAAA 220630Z 31003MPS 230V040 9999 FEW100 21/M00 Q1018 R23L/CLRD65 NOSIG
UAAA 220600Z 26003MPS 190V320 9999 FEW100 21/01 Q1018 R05R/CLRD65 NOSIG
UAAA 220530Z 28004MPS 240V320 9999 FEW100 20/00 Q1019 R23L/CLRD65 NOSIG
UAAA 220500Z 24003MPS 210V300 9999 FEW100 20/00 Q1020 R23L/CLRD65 NOSIG
UAAA 220430Z 25003MPS 180V280 9999 FEW100 19/01 Q1020 R23L/CLRD65 NOSIG
UAAA 220400Z 24004MPS 9999 FEW100 19/01 Q1020 R05R/CLRD65 NOSIG
UAAA 220330Z 21004MPS 170V230 9999 SCT100 18/01 Q1020 R05R/CLRD65 NOSIG
UAAA 220300Z 26003MPS 9999 SCT100 17/01 Q1019 R05R/CLRD65 NOSIG
UAAA 220230Z 28003MPS 240V320 9999 SCT100 17/03 Q1019 R05R/CLRD65 NOSIG
UAAA 220200Z VRB01MPS 9999 BKN100 15/05 Q1019 R05R/CLRD65 NOSIG
UAAA 220130Z 19002MPS 9999 BKN100 13/05 Q1019 R05R/CLRD65 NOSIG
UAAA 220100Z 18002MPS 160V220 9999 BKN100 13/05 Q1018 R05R/CLRD65 NOSIG
UAAA 220030Z 16002MPS 9999 OVC100 12/05 Q1018 R05R/CLRD65 NOSIG
UAAA 220000Z 00000MPS 9999 OVC100 13/05 Q1018 R23L/CLRD65 NOSIG
UAAA 212330Z VRB01MPS 9999 OVC100 12/04 Q1018 R23L/CLRD65 NOSIG
UAAA 212300Z 14002MPS 9999 BKN100 13/04 Q1018 R23L/CLRD65 NOSIG
UAAA 212230Z VRB01MPS 9999 BKN100 13/04 Q1018 R23L/CLRD65 NOSIG
UAAA 212200Z 00000MPS 9999 BKN100 13/04 Q1018 R23L/CLRD65 NOSIG
UAAA 212130Z 16002MPS 9999 SCT100 13/04 Q1017 R23L/CLRD65 NOSIG
UAAA 212100Z 17001MPS 9999 BKN100 13/04 Q1017 R23L/CLRD65 NOSIG
UAAA 212030Z 17002MPS 9999 BKN100 14/03 Q1018 R23L/CLRD65 NOSIG
UAAA 212000Z 17002MPS 9999 BKN100 13/04 Q1018 R23L/CLRD65 NOSIG
UAAA 211930Z 19002MPS 150V240 9999 SCT100 14/03 Q1018 R23L/CLRD65 NOSIG
UAAA 211900Z 00000MPS 9999 SCT100 13/03 Q1017 R23L/CLRD65 NOSIG
UAAA 211830Z 15002MPS 9999 SCT100 13/03 Q1017 R23L/CLRD65 NOSIG
UAAA 211800Z 13003MPS 9999 FEW100 13/04 Q1017 R23L/CLRD65 NOSIG
UAAA 211730Z 15004MPS 9999 FEW100 14/04 Q1018 R23L/CLRD65 NOSIG
UAAA 211700Z 31003MPS 260V050 9999 FEW100 13/04 Q1017 R23L/CLRD65 NOSIG
UAAA 211647Z 32005MPS 9999 FEW100 13/04 Q1017 R23L/CLRD65 NOSIG
UAAA 211630Z 13002MPS 9999 NSC 13/04 Q1016 R23L/CLRD65 NOSIG
UAAA 211600Z 13002MPS 9999 NSC 13/04 Q1016 R23L/CLRD65 NOSIG
UAAA 211530Z 15002MPS 9999 FEW100 15/03 Q1016 R23L/CLRD65 NOSIG
UAAA 211500Z 18002MPS 9999 FEW100 15/03 Q1016 R05R/CLRD65 NOSIG
UAAA 211430Z VRB01MPS 9999 FEW100 17/02 Q1016 R05R/CLRD65 NOSIG
UAAA 211400Z 16002MPS 9999 FEW100 17/02 Q1016 R05R/CLRD65 NOSIG
UAAA 211330Z 16002MPS 9999 FEW100 18/02 Q1016 R05R/CLRD65 NOSIG
UAAA 211300Z 11001MPS 9999 FEW100 20/02 Q1016 R05R/CLRD65 NOSIG
UAAA 211230Z VRB01MPS 9999 FEW100 22/02 Q1016 R05R/CLRD65 NOSIG
UAAA 211200Z 07002MPS 9999 FEW100 24/01 Q1015 R05R/CLRD65 NOSIG
UAAA 211130Z 04002MPS 010V070 9999 FEW100 25/00 Q1015 R05R/CLRD65 NOSIG
UAAA 211100Z 04002MPS 350V080 9999 FEW100 25/M01 Q1015 R05R/CLRD65 NOSIG
UAAA 211030Z 03003MPS 340V080 9999 FEW100 26/M01 Q1015 R05R/CLRD65 NOSIG
UAAA 211000Z 03003MPS 260V070 9999 FEW100 26/M02 Q1015 R05R/CLRD65 NOSIG
UAAA 210930Z 02005MPS 320V100 9999 FEW100 26/M03 Q1015 R05R/CLRD65 NOSIG
UAAA 210900Z 02002MPS 330V070 9999 FEW100 26/M03 Q1015 R05R/CLRD65 NOSIG
UAAA 210830Z 36004MPS 320V040 9999 FEW100 26/M04 Q1015 R05R/CLRD65 NOSIG
UAAA 210800Z 01003MPS 320V040 9999 FEW100 26/M03 Q1015 R05R/CLRD65 NOSIG
UAAA 210730Z 06003MPS 020V130 9999 FEW100 25/01 Q1015 R05R/CLRD65 NOSIG
UAAA 210700Z 04003MPS 360V080 9999 FEW050 SCT200 25/02 Q1015 R05R/CLRD65 NOSIG
UAAA 210630Z 05002MPS 350V150 9999 FEW050 SCT200 24/01 Q1016 R05R/CLRD65 NOSIG
UAAA 210600Z 01002MPS 9999 FEW050 SCT200 24/02 Q1016 R05R/CLRD65 NOSIG
UAAA 210530Z 01003MPS 340V050 9999 FEW050 SCT200 23/04 Q1016 R05R/CLRD65 NOSIG
UAAA 210500Z 03002MPS 360V080 9999 FEW050 SCT200 22/04 Q1016 R05R/CLRD65 NOSIG
UAAA 210430Z 02002MPS 340V070 9999 FEW050 SCT200 20/06 Q1016 R05R/CLRD65 NOSIG
UAAA 210400Z 36003MPS 330V030 9999 NSC 18/07 Q1016 R05R/CLRD65 NOSIG
UAAA 210330Z 00000MPS 9999 NSC 17/06 Q1016 R05R/CLRD65 NOSIG
UAAA 210300Z VRB01MPS 9999 NSC 15/06 Q1016 R05R/CLRD65 NOSIG
UAAA 210230Z 00000MPS 9999 NSC 14/06 Q1016 R05R/CLRD65 NOSIG
UAAA 210200Z 00000MPS 9999 NSC 12/05 Q1016 R05R/CLRD65 NOSIG
UAAA 210130Z VRB01MPS 9999 NSC 09/04 Q1016 R05R/CLRD65 NOSIG
UAAA 210100Z 00000MPS 9999 NSC 07/03 Q1016 R05R/CLRD65 NOSIG
UAAA 210030Z 13002MPS 9999 NSC 07/03 Q1016 R05R/CLRD65 NOSIG
UAAA 210000Z 18002MPS 150V230 9999 NSC 07/04 Q1016 R05R/CLRD65 NOSIG
UAAA 202330Z 19002MPS 9999 NSC 07/04 Q1016 R05R/CLRD65 NOSIG
UAAA 202300Z 00000MPS 9999 NSC 07/04 Q1015 R05R/CLRD65 NOSIG
UAAA 202230Z 12001MPS 9999 NSC 07/04 Q1015 R05R/CLRD65 NOSIG
UAAA 202200Z VRB01MPS 9999 NSC 08/05 Q1015 R05R/CLRD65 NOSIG
UAAA 202130Z VRB01MPS 9999 NSC 08/05 Q1015 R05R/CLRD65 NOSIG
UAAA 202100Z 16002MPS 9999 NSC 08/05 Q1015 R23L/CLRD65 NOSIG
UAAA 202030Z 16002MPS 9999 NSC 09/06 Q1015 R23L/CLRD65 NOSIG
UAAA 202000Z 13002MPS 9999 NSC 09/06 Q1015 R23L/CLRD65 NOSIG
UAAA 201930Z 12002MPS 9999 NSC 09/06 Q1015 R23L/CLRD65 NOSIG
UAAA 201900Z 12001MPS 9999 NSC 09/06 Q1015 R23L/CLRD65 NOSIG
UAAA 201830Z VRB01MPS 5000 BR FU NSC 10/06 Q1015 R23L/CLRD65 NOSIG
UAAA 201800Z 00000MPS 5000 BR FU NSC 10/06 Q1015 R23L/CLRD65 NOSIG
UAAA 201730Z VRB01MPS 5000 BR FU NSC 11/06 Q1015 R23L/CLRD65 NOSIG
UAAA 201700Z VRB01MPS 4100 BR FU NSC 11/07 Q1015 R05R/CLRD65 NOSIG
UAAA 201630Z 18002MPS 150V220 3400 BR FU NSC 12/07 Q1015 R05R/CLRD65 NOSIG